createdAt,value
2022-10-19T00:01:03.540Z,12.35
2022-10-19T00:03:34.859Z,13.77
2022-10-19T00:06:16.129Z,12.75
2022-10-19T00:08:46.562Z,12.93
2022-10-19T00:11:16.418Z,12.80
2022-10-19T00:13:45.868Z,12.55
2022-10-19T00:16:17.862Z,12.60
2022-10-19T00:18:47.560Z,12.25
2022-10-19T00:23:49.975Z,12.25
2022-10-19T00:26:20.120Z,12.55
2022-10-19T00:28:49.658Z,12.25
2022-10-19T00:31:20.206Z,13.07
2022-10-19T00:33:50.263Z,12.88
2022-10-19T00:36:25.363Z,13.18
2022-10-19T00:38:55.966Z,13.70
2022-10-19T00:41:28.300Z,13.18
2022-10-19T00:44:01.071Z,11.90
2022-10-19T00:46:33.708Z,11.85
2022-10-19T00:49:09.865Z,14.25
2022-10-19T00:51:45.625Z,15.70
2022-10-19T00:54:17.107Z,13.05
2022-10-19T00:56:49.300Z,10.30
2022-10-19T00:59:22.381Z,9.18
2022-10-19T01:01:53.797Z,12.43
2022-10-19T01:04:25.254Z,11.13
2022-10-19T01:06:56.937Z,11.93
2022-10-19T01:09:26.616Z,13.68
2022-10-19T01:12:04.970Z,12.07
2022-10-19T01:14:48.563Z,11.15
2022-10-19T01:17:26.980Z,11.75
2022-10-19T01:20:28.635Z,15.98
2022-10-19T01:23:19.005Z,16.17
2022-10-19T01:25:57.351Z,15.52
2022-10-19T01:28:41.219Z,11.77
2022-10-19T01:31:22.288Z,11.68
2022-10-19T01:34:02.159Z,11.30
2022-10-19T01:36:37.129Z,13.07
2022-10-19T01:39:13.283Z,11.02
2022-10-19T01:41:52.238Z,8.25
2022-10-19T01:44:30.906Z,10.60
2022-10-19T01:47:06.365Z,8.77
2022-10-19T01:49:43.355Z,10.48
2022-10-19T01:52:17.469Z,10.77
2022-10-19T01:54:51.386Z,8.77
2022-10-19T01:57:41.755Z,9.05
2022-10-19T02:09:54.164Z,9.18
2022-10-19T02:12:25.796Z,10.13
2022-10-19T02:14:59.989Z,13.13
2022-10-19T02:17:35.149Z,17.73
2022-10-19T02:20:06.268Z,13.95
2022-10-19T02:22:36.419Z,15.02
2022-10-19T02:27:42.219Z,10.13
2022-10-19T02:30:14.679Z,10.68
2022-10-19T02:32:45.475Z,9.73
2022-10-19T02:35:16.995Z,8.52
2022-10-19T02:37:47.443Z,7.53
2022-10-19T02:40:18.675Z,8.27
2022-10-19T02:42:57.904Z,6.75
2022-10-19T02:45:30.957Z,6.53
2022-10-19T02:48:04.591Z,7.32
2022-10-19T02:50:34.421Z,7.18
2022-10-19T02:53:04.627Z,6.18
2022-10-19T02:55:36.354Z,6.55
2022-10-19T02:58:06.344Z,7.05
2022-10-19T03:00:36.163Z,6.90
2022-10-19T03:05:35.478Z,6.63
2022-10-19T03:08:05.887Z,7.05
2022-10-19T03:13:06.551Z,6.68
2022-10-19T03:15:36.231Z,6.70
2022-10-19T03:18:06.334Z,7.47
2022-10-19T03:20:36.063Z,8.15
2022-10-19T03:25:36.705Z,7.05
2022-10-19T03:28:06.639Z,7.00
2022-10-19T03:30:36.261Z,7.30
2022-10-19T03:33:06.387Z,6.75
2022-10-19T03:38:06.032Z,6.60
2022-10-19T03:40:38.644Z,7.68
2022-10-19T03:43:09.622Z,7.43
2022-10-19T03:48:09.693Z,6.68
2022-10-19T03:50:39.464Z,7.55
2022-10-19T03:53:09.800Z,7.57
2022-10-19T03:55:41.316Z,7.70
2022-10-19T03:58:11.159Z,7.40
2022-10-19T04:00:42.200Z,8.10
2022-10-19T04:03:13.168Z,7.82
2022-10-19T04:05:42.942Z,8.43
2022-10-19T04:08:12.997Z,7.95
2022-10-19T04:10:44.348Z,8.15
2022-10-19T04:13:14.743Z,8.05
2022-10-19T04:15:44.641Z,8.32
2022-10-19T04:18:15.299Z,8.38
2022-10-19T04:20:45.062Z,8.10
2022-10-19T04:26:36.413Z,7.32
2022-10-19T04:29:06.762Z,8.60
2022-10-19T04:31:36.475Z,9.75
2022-10-19T04:34:24.616Z,9.15
2022-10-19T04:37:03.739Z,10.32
2022-10-19T04:39:33.759Z,11.70
2022-10-19T04:45:08.476Z,10.88
2022-10-19T04:47:38.321Z,12.10
2022-10-19T04:50:08.764Z,11.82
2022-10-19T04:52:38.438Z,10.80
2022-10-19T04:55:08.814Z,11.45
2022-10-19T05:00:10.743Z,9.95
2022-10-19T05:02:44.921Z,11.15
2022-10-19T05:05:15.703Z,10.52
2022-10-19T05:07:45.621Z,12.02
2022-10-19T05:10:15.823Z,10.85
2022-10-19T05:12:46.836Z,10.75
2022-10-19T05:29:50.801Z,7.70
2022-10-19T05:32:20.757Z,7.50
2022-10-19T05:34:50.420Z,7.22
2022-10-19T05:37:21.976Z,10.13
2022-10-19T05:39:51.635Z,8.98
2022-10-19T05:44:52.327Z,9.43
2022-10-19T05:47:22.403Z,8.55
2022-10-19T05:49:52.287Z,10.25
2022-10-19T05:52:22.248Z,14.18
2022-10-19T05:54:54.404Z,16.40
2022-10-19T05:57:24.617Z,16.55
2022-10-19T05:59:58.776Z,11.23
2022-10-19T06:02:29.136Z,9.30
2022-10-19T06:04:59.173Z,9.77
2022-10-19T06:07:29.603Z,11.52
2022-10-19T06:09:59.848Z,7.93
2022-10-19T06:12:30.231Z,8.05
2022-10-19T06:17:33.181Z,7.18
2022-10-19T06:20:03.798Z,8.15
2022-10-19T06:22:35.216Z,8.40
2022-10-19T06:25:06.326Z,7.93
2022-10-19T06:27:38.718Z,8.80
2022-10-19T06:30:12.224Z,8.52
2022-10-19T06:32:42.770Z,9.57
2022-10-19T06:35:12.968Z,8.50
2022-10-19T06:37:43.153Z,9.23
2022-10-19T06:40:13.785Z,8.75
2022-10-19T06:42:44.558Z,9.40
2022-10-19T06:45:17.058Z,8.38
2022-10-19T06:47:50.910Z,8.10
2022-10-19T06:50:22.187Z,7.25
2022-10-19T06:52:52.431Z,7.50
2022-10-19T06:55:22.611Z,7.70
2022-10-19T06:57:53.239Z,7.90
2022-10-19T07:00:24.981Z,7.85
2022-10-19T07:02:55.401Z,8.00
2022-10-19T07:05:25.577Z,8.13
2022-10-19T07:07:56.439Z,8.27
2022-10-19T07:10:26.612Z,8.52
2022-10-19T07:12:58.515Z,9.63
2022-10-19T07:15:30.185Z,8.55
2022-10-19T07:18:01.327Z,8.60
2022-10-19T07:20:31.348Z,9.48
2022-10-19T07:23:03.324Z,10.10
2022-10-19T07:25:34.025Z,10.45
2022-10-19T07:28:04.551Z,8.40
2022-10-19T07:30:36.117Z,8.02
2022-10-19T07:33:07.252Z,9.27
2022-10-19T07:35:37.374Z,8.77
2022-10-19T07:38:08.178Z,7.50
2022-10-19T07:40:39.473Z,7.65
2022-10-19T07:43:11.915Z,7.70
2022-10-19T07:45:44.595Z,6.97
2022-10-19T07:48:14.986Z,6.50
2022-10-19T07:50:49.732Z,6.07
2022-10-19T07:53:20.520Z,5.10
2022-10-19T07:55:50.927Z,4.35
2022-10-19T07:58:21.564Z,3.88
2022-10-19T08:00:53.154Z,3.72
2022-10-19T08:06:15.425Z,3.10
2022-10-19T08:08:46.731Z,2.85
2022-10-19T08:11:18.862Z,3.10
2022-10-19T08:13:49.658Z,3.00
2022-10-19T08:16:26.776Z,3.35
2022-10-19T08:19:00.381Z,3.50
2022-10-19T08:21:32.379Z,3.10
2022-10-19T08:24:02.875Z,3.13
2022-10-19T08:26:34.942Z,3.17
2022-10-19T08:29:07.540Z,2.75
2022-10-19T08:31:39.376Z,3.30
2022-10-19T08:34:10.404Z,3.53
2022-10-19T08:39:18.233Z,3.10
2022-10-19T08:41:58.251Z,3.45
2022-10-19T08:44:58.051Z,2.78
2022-10-19T08:47:54.365Z,3.05
2022-10-19T08:50:27.967Z,2.72
2022-10-19T08:53:04.778Z,3.05
2022-10-19T08:55:51.470Z,3.00
2022-10-19T08:58:41.617Z,2.80
2022-10-19T09:01:22.597Z,3.03
2022-10-19T09:04:00.517Z,3.22
2022-10-19T09:06:39.070Z,2.75
2022-10-19T09:09:14.691Z,2.90
2022-10-19T09:11:50.446Z,2.60
2022-10-19T09:14:29.823Z,2.80
2022-10-19T09:17:05.648Z,2.58
2022-10-19T09:19:38.270Z,2.65
2022-10-19T09:22:14.600Z,2.60
2022-10-19T09:24:47.574Z,2.65
2022-10-19T09:27:23.121Z,2.83
2022-10-19T09:29:57.348Z,2.40
2022-10-19T09:32:34.015Z,2.50
2022-10-19T09:35:19.155Z,2.50
2022-10-19T09:37:52.291Z,2.45
2022-10-19T09:40:25.534Z,2.20
2022-10-19T09:42:59.212Z,2.58
2022-10-19T09:45:39.573Z,2.53
2022-10-19T09:48:19.401Z,2.40
2022-10-19T09:51:00.111Z,2.60
2022-10-19T09:53:32.284Z,2.80
2022-10-19T09:56:08.624Z,2.55
2022-10-19T09:58:48.520Z,2.65
2022-10-19T10:01:41.411Z,3.10
2022-10-19T10:04:18.628Z,3.20
2022-10-19T10:06:51.195Z,2.63
2022-10-19T10:09:26.373Z,2.80
2022-10-19T10:12:00.698Z,3.03
2022-10-19T10:14:35.101Z,2.97
2022-10-19T10:17:06.965Z,2.80
2022-10-19T10:19:37.666Z,2.83
2022-10-19T10:22:26.870Z,2.80
2022-10-19T10:24:58.371Z,2.72
2022-10-19T10:27:33.150Z,2.60
2022-10-19T10:30:08.875Z,2.92
2022-10-19T10:35:20.614Z,2.88
2022-10-19T10:37:52.828Z,3.60
2022-10-19T10:40:28.516Z,4.07
2022-10-19T10:43:04.398Z,3.90
2022-10-19T10:45:40.549Z,3.95
2022-10-19T10:48:27.651Z,4.15
2022-10-19T10:50:59.007Z,4.20
2022-10-19T10:53:43.801Z,5.30
2022-10-19T10:56:27.342Z,5.35
2022-10-19T10:59:02.283Z,4.72
2022-10-19T11:01:37.104Z,5.70
2022-10-19T11:04:14.086Z,5.03
2022-10-19T11:06:52.618Z,4.78
2022-10-19T11:09:31.338Z,5.40
2022-10-19T11:12:05.546Z,5.47
2022-10-19T11:14:45.788Z,5.28
2022-10-19T11:17:22.099Z,5.07
2022-10-19T11:19:52.821Z,4.68
2022-10-19T11:22:30.231Z,5.40
2022-10-19T11:25:21.250Z,5.28
2022-10-19T11:28:02.949Z,4.80
2022-10-19T11:33:18.197Z,5.20
2022-10-19T11:35:53.520Z,5.28
2022-10-19T11:38:36.833Z,4.75
2022-10-19T11:41:19.309Z,5.30
2022-10-19T11:44:05.218Z,5.35
2022-10-19T11:46:44.174Z,5.00
2022-10-19T11:49:25.000Z,4.70
2022-10-19T11:52:02.100Z,4.35
2022-10-19T11:54:46.054Z,4.05
2022-10-19T11:57:22.130Z,4.70
2022-10-19T12:00:14.440Z,4.93
2022-10-19T12:17:25.876Z,4.22
2022-10-19T12:20:01.340Z,4.20
2022-10-19T12:22:33.354Z,4.25
2022-10-19T12:25:04.138Z,4.68
2022-10-19T12:27:38.240Z,4.78
2022-10-19T12:30:14.718Z,4.13
2022-10-19T12:32:57.689Z,5.15
2022-10-19T12:35:46.391Z,4.20
2022-10-19T12:38:23.957Z,4.78
2022-10-19T12:41:02.630Z,4.70
2022-10-19T12:43:40.747Z,4.13
2022-10-19T12:46:23.093Z,4.30
2022-10-19T12:49:26.329Z,4.18
2022-10-19T12:52:00.402Z,4.03
2022-10-19T12:54:33.930Z,3.70
2022-10-19T12:57:05.636Z,4.55
2022-10-19T12:59:39.788Z,4.22
2022-10-19T13:02:28.262Z,4.60
2022-10-19T13:04:59.273Z,4.10
2022-10-19T13:07:36.654Z,4.15
2022-10-19T13:10:10.175Z,3.90
2022-10-19T13:12:47.418Z,4.25
2022-10-19T13:15:59.933Z,4.25
2022-10-19T13:19:06.905Z,3.38
2022-10-19T13:21:49.031Z,3.85
2022-10-19T13:24:32.031Z,3.50
2022-10-19T13:27:30.249Z,3.80
2022-10-19T13:30:03.873Z,3.78
2022-10-19T13:32:37.920Z,3.67
2022-10-19T13:35:37.512Z,3.67
2022-10-19T13:38:26.810Z,4.28
2022-10-19T13:41:04.693Z,3.80
2022-10-19T13:43:44.979Z,3.97
2022-10-19T13:46:17.948Z,4.20
2022-10-19T13:49:18.550Z,4.53
2022-10-19T13:52:05.406Z,4.15
2022-10-19T13:55:13.206Z,4.00
2022-10-19T13:58:04.571Z,4.20
2022-10-19T14:00:40.952Z,4.57
2022-10-19T14:03:27.825Z,4.45
2022-10-19T14:06:17.427Z,4.28
2022-10-19T14:09:22.963Z,4.68
2022-10-19T14:11:54.409Z,4.15
2022-10-19T14:14:26.767Z,4.07
2022-10-19T14:17:01.354Z,4.55
2022-10-19T14:19:42.849Z,4.85
2022-10-19T14:22:37.484Z,4.65
2022-10-19T14:25:17.809Z,5.00
2022-10-19T14:27:48.508Z,4.30
2022-10-19T14:30:28.129Z,4.43
2022-10-19T14:33:02.039Z,4.70
2022-10-19T14:35:36.106Z,4.70
2022-10-19T14:38:08.892Z,5.00
2022-10-19T14:40:41.559Z,5.47
2022-10-19T14:43:22.380Z,4.95
2022-10-19T14:46:13.502Z,5.07
2022-10-19T14:48:45.842Z,4.82
2022-10-19T14:51:31.102Z,4.55
2022-10-19T14:54:05.759Z,5.28
2022-10-19T14:56:40.806Z,4.68
2022-10-19T14:59:26.005Z,4.78
2022-10-19T15:02:02.485Z,4.57
2022-10-19T15:04:36.481Z,5.18
2022-10-19T15:07:18.779Z,4.72
2022-10-19T15:09:55.626Z,5.78
2022-10-19T15:12:30.516Z,4.95
2022-10-19T15:15:01.197Z,4.43
2022-10-19T15:17:38.322Z,5.00
2022-10-19T15:20:26.008Z,5.43
2022-10-19T15:22:57.592Z,5.38
2022-10-19T15:25:37.442Z,5.55
2022-10-19T15:31:59.880Z,6.97
2022-10-19T15:34:35.810Z,7.75
2022-10-19T15:37:20.658Z,7.60
2022-10-19T15:39:55.982Z,7.57
2022-10-19T15:42:46.436Z,7.43
2022-10-19T15:45:43.062Z,8.15
2022-10-19T15:48:31.114Z,8.55
2022-10-19T15:53:43.089Z,8.57
2022-10-19T15:56:19.514Z,9.95
2022-10-19T15:58:51.707Z,10.50
2022-10-19T16:01:26.490Z,11.35
2022-10-19T16:03:57.117Z,10.52
2022-10-19T16:06:31.389Z,11.05
2022-10-19T16:09:02.282Z,11.20
2022-10-19T16:11:35.013Z,11.32
2022-10-19T16:14:05.398Z,11.43
2022-10-19T16:16:38.180Z,11.40
2022-10-19T16:19:08.499Z,11.18
2022-10-19T16:21:41.639Z,11.65
2022-10-19T16:24:12.094Z,12.55
2022-10-19T16:26:43.001Z,11.98
2022-10-19T16:29:13.252Z,12.35
2022-10-19T16:31:45.334Z,12.38
2022-10-19T16:34:15.921Z,10.25
2022-10-19T16:36:48.723Z,10.30
2022-10-19T16:39:19.127Z,8.07
2022-10-19T16:41:50.051Z,8.73
2022-10-19T16:44:20.440Z,9.18
2022-10-19T16:46:52.220Z,9.50
2022-10-19T16:49:22.657Z,11.32
2022-10-19T16:51:57.477Z,11.07
2022-10-19T16:54:30.182Z,10.55
2022-10-19T16:57:03.670Z,11.02
2022-10-19T16:59:36.764Z,14.10
2022-10-19T17:02:08.276Z,15.93
2022-10-19T17:04:39.424Z,15.25
2022-10-19T17:07:13.486Z,15.48
2022-10-19T17:09:44.369Z,14.73
2022-10-19T17:12:15.331Z,13.13
2022-10-19T17:14:45.539Z,13.23
2022-10-19T17:17:17.615Z,12.48
2022-10-19T17:19:49.316Z,12.50
2022-10-19T17:22:21.478Z,12.73
2022-10-19T17:24:52.817Z,11.73
2022-10-19T17:27:25.672Z,11.52
2022-10-19T17:30:00.884Z,10.75
2022-10-19T17:32:34.709Z,11.35
2022-10-19T17:35:08.777Z,11.65
2022-10-19T17:42:47.182Z,11.68
2022-10-19T17:45:18.304Z,10.65
2022-10-19T17:47:49.975Z,11.13
2022-10-19T17:50:25.762Z,11.18
2022-10-19T17:52:57.097Z,10.55
2022-10-19T17:55:30.724Z,10.70
2022-10-19T17:58:05.523Z,11.55
2022-10-19T18:00:53.296Z,11.48
2022-10-19T18:03:31.113Z,11.00
2022-10-19T18:06:10.887Z,11.27
2022-10-19T18:08:51.409Z,10.10
2022-10-19T18:11:36.824Z,10.15
2022-10-19T18:14:21.213Z,9.75
2022-10-19T18:18:11.756Z,9.15
2022-10-19T18:21:11.999Z,8.40
2022-10-19T18:23:51.716Z,8.73
2022-10-19T18:26:33.916Z,8.50
2022-10-19T18:29:26.308Z,7.97
2022-10-19T18:34:47.741Z,8.68
2022-10-19T18:40:00.427Z,8.27
2022-10-19T18:42:43.526Z,9.18
2022-10-19T18:45:18.932Z,9.68
2022-10-19T18:47:57.116Z,9.25
2022-10-19T18:50:37.594Z,9.20
2022-10-19T18:53:27.951Z,9.05
2022-10-19T18:56:02.229Z,8.95
2022-10-19T18:58:47.021Z,10.05
2022-10-19T19:01:31.335Z,9.52
2022-10-19T19:04:12.344Z,9.63
2022-10-19T19:06:50.559Z,9.27
2022-10-19T19:09:32.636Z,9.25
2022-10-19T19:12:06.966Z,10.13
2022-10-19T19:14:42.483Z,10.68
2022-10-19T19:17:18.626Z,10.45
2022-10-19T19:19:52.318Z,10.88
2022-10-19T19:22:29.540Z,11.60
2022-10-19T19:25:06.616Z,11.93
2022-10-19T19:27:41.180Z,11.50
2022-10-19T19:30:14.292Z,10.95
2022-10-19T19:32:59.179Z,10.45
2022-10-19T19:35:40.717Z,10.88
2022-10-19T19:38:22.794Z,11.10
2022-10-19T19:41:05.892Z,11.02
2022-10-19T19:43:55.337Z,11.65
2022-10-19T19:46:38.281Z,11.15
2022-10-19T19:49:16.334Z,12.50
2022-10-19T19:51:57.496Z,11.52
2022-10-19T19:54:31.611Z,12.55
2022-10-19T19:57:03.233Z,11.82
2022-10-19T19:59:35.628Z,11.77
2022-10-19T20:02:11.624Z,11.57
2022-10-19T20:04:43.712Z,11.13
2022-10-19T20:07:16.526Z,11.85
2022-10-19T20:09:47.648Z,11.30
2022-10-19T20:12:22.848Z,11.75
2022-10-19T20:15:01.630Z,11.57
2022-10-19T20:17:37.528Z,12.07
2022-10-19T20:20:24.009Z,11.68
2022-10-19T20:25:33.695Z,10.40
2022-10-19T20:28:08.155Z,11.25
2022-10-19T20:30:41.061Z,10.20
2022-10-19T20:33:17.970Z,11.95
2022-10-19T20:35:51.840Z,11.05
2022-10-19T20:38:28.046Z,9.00
2022-10-19T20:40:58.634Z,8.80
2022-10-19T20:43:32.782Z,8.45
2022-10-19T20:46:24.461Z,8.60
2022-10-19T20:48:56.823Z,8.88
2022-10-19T20:51:32.737Z,8.27
2022-10-19T20:54:09.318Z,9.05
2022-10-19T20:56:40.816Z,8.52
2022-10-19T20:59:14.394Z,8.57
2022-10-19T21:50:29.132Z,7.88
2022-10-19T21:52:59.186Z,6.78
2022-10-19T21:55:29.959Z,6.90
2022-10-19T21:57:59.968Z,6.95
2022-10-19T22:00:29.684Z,7.25
2022-10-19T22:05:30.322Z,7.63
2022-10-19T22:08:00.435Z,6.45
2022-10-19T22:10:30.240Z,7.07
2022-10-19T22:13:00.450Z,7.38
2022-10-19T22:15:30.060Z,7.05
2022-10-19T22:35:13.643Z,6.70
2022-10-19T22:37:43.439Z,6.90
2022-10-19T22:42:43.158Z,6.45
2022-10-19T22:45:12.993Z,6.93
2022-10-19T22:47:42.798Z,6.95
2022-10-19T22:50:14.353Z,6.72
2022-10-19T22:52:43.901Z,7.32
2022-10-19T22:57:43.099Z,7.45
2022-10-19T23:00:13.842Z,7.40
2022-10-19T23:02:43.761Z,6.30
2022-10-19T23:07:44.423Z,6.63
2022-10-19T23:12:43.644Z,6.90
2022-10-19T23:15:13.770Z,6.53
2022-10-19T23:17:43.834Z,7.20
2022-10-19T23:20:15.883Z,7.00
2022-10-19T23:22:45.843Z,6.72
2022-10-19T23:25:16.397Z,6.55
2022-10-19T23:27:46.290Z,7.40
2022-10-19T23:30:16.608Z,6.43
2022-10-19T23:32:46.651Z,6.80
2022-10-19T23:37:48.163Z,6.70
2022-10-19T23:40:18.252Z,7.10
2022-10-19T23:42:47.951Z,6.78
2022-10-19T23:47:47.263Z,6.30
2022-10-19T23:50:19.063Z,6.50
2022-10-19T23:52:48.864Z,6.95
2022-10-19T23:55:19.620Z,6.88
2022-10-19T23:57:49.560Z,6.72
